Flora, Mississippi
Current Conditions -  °F | °C
As of 8:53 PM on Tuesday 21 Oct 2014 (Local Time) from KHKS Reporting Station
Clear Clear  
Wind Chill: 63°   Ceiling: Unl
Heat Index: 63°   Visibility: 10mi
Dew Point: 57°   Wind: 0mph
Humidity: 81%   Direction: NA
Pressure: 30.05"   Gusts: NA
Location:  32.54°N, 90.31°W
Report Text: KHKS 220153Z 00000KT 10SM CLR 17/14 A3005 RMK AO2 SLP168 T01720139
Loading
Personal Weather Stations






























Interactive Weather Map
Tropical Storm Tracking
New forecast layout! Learn more

10-Day Weather Forecast

Advertisements
Track Severe Weather on mobile